sensor_id;sensor_type;location;lat;lon;timestamp;P1;durP1;ratioP1;P2;durP2;ratioP2
63189;SDS011;49286;44.460;26.114;2023-04-21T00:00:54;11.27;;;6.35;;
63189;SDS011;49286;44.460;26.114;2023-04-21T00:03:20;15.43;;;6.80;;
63189;SDS011;49286;44.460;26.114;2023-04-21T00:05:48;16.00;;;7.10;;
63189;SDS011;49286;44.460;26.114;2023-04-21T00:08:14;14.32;;;7.35;;
63189;SDS011;49286;44.460;26.114;2023-04-21T00:10:41;18.48;;;6.82;;
63189;SDS011;49286;44.460;26.114;2023-04-21T00:13:07;12.02;;;7.45;;
63189;SDS011;49286;44.460;26.114;2023-04-21T00:15:32;12.82;;;7.45;;
63189;SDS011;49286;44.460;26.114;2023-04-21T00:17:58;14.00;;;8.10;;
63189;SDS011;49286;44.460;26.114;2023-04-21T00:20:24;11.93;;;8.07;;
63189;SDS011;49286;44.460;26.114;2023-04-21T00:22:53;12.73;;;9.23;;
63189;SDS011;49286;44.460;26.114;2023-04-21T00:25:20;9.82;;;7.72;;
63189;SDS011;49286;44.460;26.114;2023-04-21T00:27:46;12.80;;;7.65;;
63189;SDS011;49286;44.460;26.114;2023-04-21T00:30:12;22.70;;;8.73;;
63189;SDS011;49286;44.460;26.114;2023-04-21T00:32:37;11.82;;;7.85;;
63189;SDS011;49286;44.460;26.114;2023-04-21T00:35:03;10.68;;;7.50;;
63189;SDS011;49286;44.460;26.114;2023-04-21T00:37:29;10.38;;;7.22;;
63189;SDS011;49286;44.460;26.114;2023-04-21T00:39:55;12.02;;;7.70;;
63189;SDS011;49286;44.460;26.114;2023-04-21T00:42:20;8.23;;;7.30;;
63189;SDS011;49286;44.460;26.114;2023-04-21T00:44:46;14.07;;;8.18;;
63189;SDS011;49286;44.460;26.114;2023-04-21T00:47:11;11.48;;;7.95;;
63189;SDS011;49286;44.460;26.114;2023-04-21T00:49:37;15.15;;;8.38;;
63189;SDS011;49286;44.460;26.114;2023-04-21T00:52:05;13.82;;;8.20;;
63189;SDS011;49286;44.460;26.114;2023-04-21T00:54:31;14.30;;;8.40;;
63189;SDS011;49286;44.460;26.114;2023-04-21T00:56:59;14.52;;;9.68;;
63189;SDS011;49286;44.460;26.114;2023-04-21T00:59:25;13.45;;;8.70;;
63189;SDS011;49286;44.460;26.114;2023-04-21T01:01:51;19.98;;;10.15;;
63189;SDS011;49286;44.460;26.114;2023-04-21T01:04:17;12.25;;;9.63;;
63189;SDS011;49286;44.460;26.114;2023-04-21T01:06:42;19.02;;;9.50;;
63189;SDS011;49286;44.460;26.114;2023-04-21T01:09:08;14.90;;;10.43;;
63189;SDS011;49286;44.460;26.114;2023-04-21T01:11:33;21.27;;;9.60;;
63189;SDS011;49286;44.460;26.114;2023-04-21T01:13:59;14.38;;;10.23;;
63189;SDS011;49286;44.460;26.114;2023-04-21T01:16:25;12.07;;;8.68;;
63189;SDS011;49286;44.460;26.114;2023-04-21T01:18:51;16.15;;;10.10;;
63189;SDS011;49286;44.460;26.114;2023-04-21T01:21:17;16.52;;;10.60;;
63189;SDS011;49286;44.460;26.114;2023-04-21T01:23:44;21.08;;;10.82;;
63189;SDS011;49286;44.460;26.114;2023-04-21T01:26:10;13.07;;;9.45;;
63189;SDS011;49286;44.460;26.114;2023-04-21T01:28:36;19.90;;;10.05;;
63189;SDS011;49286;44.460;26.114;2023-04-21T01:31:02;14.27;;;11.18;;
63189;SDS011;49286;44.460;26.114;2023-04-21T01:33:28;13.23;;;9.93;;
63189;SDS011;49286;44.460;26.114;2023-04-21T01:35:54;20.40;;;10.38;;
63189;SDS011;49286;44.460;26.114;2023-04-21T01:38:20;14.25;;;11.60;;
63189;SDS011;49286;44.460;26.114;2023-04-21T01:40:47;14.88;;;10.80;;
63189;SDS011;49286;44.460;26.114;2023-04-21T01:43:16;16.98;;;10.07;;
63189;SDS011;49286;44.460;26.114;2023-04-21T01:45:43;13.90;;;9.82;;
63189;SDS011;49286;44.460;26.114;2023-04-21T01:48:09;16.08;;;10.70;;
63189;SDS011;49286;44.460;26.114;2023-04-21T01:50:34;13.60;;;9.80;;
63189;SDS011;49286;44.460;26.114;2023-04-21T01:53:00;15.90;;;11.18;;
63189;SDS011;49286;44.460;26.114;2023-04-21T01:55:25;15.45;;;10.50;;
63189;SDS011;49286;44.460;26.114;2023-04-21T01:57:51;12.40;;;10.65;;
63189;SDS011;49286;44.460;26.114;2023-04-21T02:00:16;19.17;;;11.85;;
63189;SDS011;49286;44.460;26.114;2023-04-21T02:02:42;17.15;;;10.75;;
63189;SDS011;49286;44.460;26.114;2023-04-21T02:05:08;19.05;;;11.73;;
63189;SDS011;49286;44.460;26.114;2023-04-21T02:07:33;14.77;;;10.50;;
63189;SDS011;49286;44.460;26.114;2023-04-21T02:10:00;15.10;;;11.98;;
63189;SDS011;49286;44.460;26.114;2023-04-21T02:12:25;17.48;;;11.95;;
63189;SDS011;49286;44.460;26.114;2023-04-21T02:14:51;13.48;;;12.00;;
63189;SDS011;49286;44.460;26.114;2023-04-21T02:17:17;20.27;;;12.75;;
63189;SDS011;49286;44.460;26.114;2023-04-21T02:19:42;20.98;;;13.30;;
63189;SDS011;49286;44.460;26.114;2023-04-21T02:22:08;18.20;;;11.50;;
63189;SDS011;49286;44.460;26.114;2023-04-21T02:24:36;19.50;;;11.90;;
63189;SDS011;49286;44.460;26.114;2023-04-21T02:27:02;19.42;;;12.20;;
63189;SDS011;49286;44.460;26.114;2023-04-21T02:29:27;15.48;;;12.80;;
63189;SDS011;49286;44.460;26.114;2023-04-21T02:31:53;21.40;;;12.82;;
63189;SDS011;49286;44.460;26.114;2023-04-21T02:34:18;19.17;;;13.75;;
63189;SDS011;49286;44.460;26.114;2023-04-21T02:36:44;15.15;;;12.57;;
63189;SDS011;49286;44.460;26.114;2023-04-21T02:39:10;19.80;;;12.32;;
63189;SDS011;49286;44.460;26.114;2023-04-21T02:41:36;15.45;;;10.93;;
63189;SDS011;49286;44.460;26.114;2023-04-21T02:44:02;18.45;;;13.65;;
63189;SDS011;49286;44.460;26.114;2023-04-21T02:46:28;26.65;;;13.52;;
63189;SDS011;49286;44.460;26.114;2023-04-21T02:48:53;19.90;;;12.30;;
63189;SDS011;49286;44.460;26.114;2023-04-21T02:51:19;15.25;;;12.73;;
63189;SDS011;49286;44.460;26.114;2023-04-21T02:53:44;18.38;;;13.07;;
63189;SDS011;49286;44.460;26.114;2023-04-21T02:56:10;17.55;;;13.57;;
63189;SDS011;49286;44.460;26.114;2023-04-21T02:58:35;18.65;;;13.52;;
63189;SDS011;49286;44.460;26.114;2023-04-21T03:01:02;22.13;;;13.07;;
63189;SDS011;49286;44.460;26.114;2023-04-21T03:03:29;15.48;;;12.80;;
63189;SDS011;49286;44.460;26.114;2023-04-21T03:05:58;14.57;;;11.30;;
63189;SDS011;49286;44.460;26.114;2023-04-21T03:08:28;16.48;;;11.77;;
63189;SDS011;49286;44.460;26.114;2023-04-21T03:10:55;20.08;;;11.95;;
63189;SDS011;49286;44.460;26.114;2023-04-21T03:13:21;16.77;;;11.43;;
63189;SDS011;49286;44.460;26.114;2023-04-21T03:15:47;12.60;;;10.90;;
63189;SDS011;49286;44.460;26.114;2023-04-21T03:18:13;17.55;;;11.90;;
63189;SDS011;49286;44.460;26.114;2023-04-21T03:20:38;20.38;;;11.27;;
63189;SDS011;49286;44.460;26.114;2023-04-21T03:23:04;22.70;;;13.00;;
63189;SDS011;49286;44.460;26.114;2023-04-21T03:25:29;18.50;;;13.57;;
63189;SDS011;49286;44.460;26.114;2023-04-21T03:27:55;24.30;;;14.75;;
63189;SDS011;49286;44.460;26.114;2023-04-21T03:30:21;16.98;;;13.90;;
63189;SDS011;49286;44.460;26.114;2023-04-21T03:32:48;18.33;;;13.07;;
63189;SDS011;49286;44.460;26.114;2023-04-21T03:35:14;17.33;;;13.63;;
63189;SDS011;49286;44.460;26.114;2023-04-21T03:37:40;20.17;;;16.33;;
63189;SDS011;49286;44.460;26.114;2023-04-21T03:40:06;16.98;;;14.90;;
63189;SDS011;49286;44.460;26.114;2023-04-21T03:42:32;19.02;;;14.23;;
63189;SDS011;49286;44.460;26.114;2023-04-21T03:45:04;24.45;;;16.75;;
63189;SDS011;49286;44.460;26.114;2023-04-21T03:47:31;18.40;;;15.02;;
63189;SDS011;49286;44.460;26.114;2023-04-21T03:49:56;20.10;;;14.50;;
63189;SDS011;49286;44.460;26.114;2023-04-21T03:52:22;20.65;;;16.45;;
63189;SDS011;49286;44.460;26.114;2023-04-21T03:54:48;18.85;;;15.57;;
63189;SDS011;49286;44.460;26.114;2023-04-21T03:57:14;18.90;;;16.30;;
63189;SDS011;49286;44.460;26.114;2023-04-21T03:59:40;20.70;;;17.45;;
63189;SDS011;49286;44.460;26.114;2023-04-21T04:02:06;24.73;;;17.60;;
63189;SDS011;49286;44.460;26.114;2023-04-21T04:04:31;22.83;;;17.35;;
63189;SDS011;49286;44.460;26.114;2023-04-21T04:06:57;24.00;;;19.08;;
63189;SDS011;49286;44.460;26.114;2023-04-21T04:09:22;28.83;;;19.20;;
63189;SDS011;49286;44.460;26.114;2023-04-21T04:11:48;21.70;;;17.63;;
63189;SDS011;49286;44.460;26.114;2023-04-21T04:14:13;25.08;;;19.42;;
63189;SDS011;49286;44.460;26.114;2023-04-21T04:16:39;28.30;;;19.25;;
63189;SDS011;49286;44.460;26.114;2023-04-21T04:19:05;23.83;;;20.88;;
63189;SDS011;49286;44.460;26.114;2023-04-21T04:21:31;21.50;;;19.13;;
63189;SDS011;49286;44.460;26.114;2023-04-21T04:23:57;25.42;;;20.65;;
63189;SDS011;49286;44.460;26.114;2023-04-21T04:26:23;24.63;;;21.55;;
63189;SDS011;49286;44.460;26.114;2023-04-21T04:28:49;27.25;;;22.60;;
63189;SDS011;49286;44.460;26.114;2023-04-21T04:31:15;24.45;;;20.63;;
63189;SDS011;49286;44.460;26.114;2023-04-21T04:33:41;34.40;;;23.10;;
63189;SDS011;49286;44.460;26.114;2023-04-21T04:36:08;28.00;;;21.30;;
63189;SDS011;49286;44.460;26.114;2023-04-21T04:38:36;26.65;;;23.48;;
63189;SDS011;49286;44.460;26.114;2023-04-21T04:41:02;27.83;;;22.63;;
63189;SDS011;49286;44.460;26.114;2023-04-21T04:43:29;25.42;;;21.33;;
63189;SDS011;49286;44.460;26.114;2023-04-21T04:45:57;23.88;;;20.42;;
63189;SDS011;49286;44.460;26.114;2023-04-21T04:48:23;29.40;;;22.63;;
63189;SDS011;49286;44.460;26.114;2023-04-21T04:50:49;27.02;;;21.80;;
63189;SDS011;49286;44.460;26.114;2023-04-21T04:53:15;28.83;;;23.27;;
63189;SDS011;49286;44.460;26.114;2023-04-21T04:55:41;32.70;;;24.92;;
63189;SDS011;49286;44.460;26.114;2023-04-21T04:58:07;30.25;;;24.17;;
63189;SDS011;49286;44.460;26.114;2023-04-21T05:00:32;30.65;;;23.98;;
63189;SDS011;49286;44.460;26.114;2023-04-21T05:02:58;41.85;;;27.70;;
63189;SDS011;49286;44.460;26.114;2023-04-21T05:05:23;38.75;;;27.45;;
63189;SDS011;49286;44.460;26.114;2023-04-21T05:07:49;35.30;;;27.67;;
63189;SDS011;49286;44.460;26.114;2023-04-21T05:10:15;39.10;;;29.48;;
63189;SDS011;49286;44.460;26.114;2023-04-21T05:12:40;37.95;;;29.00;;
63189;SDS011;49286;44.460;26.114;2023-04-21T05:15:06;41.97;;;30.98;;
63189;SDS011;49286;44.460;26.114;2023-04-21T05:17:32;35.58;;;27.88;;
63189;SDS011;49286;44.460;26.114;2023-04-21T05:19:58;39.70;;;27.42;;
63189;SDS011;49286;44.460;26.114;2023-04-21T05:22:23;39.30;;;27.05;;
63189;SDS011;49286;44.460;26.114;2023-04-21T05:24:49;45.75;;;28.92;;
63189;SDS011;49286;44.460;26.114;2023-04-21T05:27:15;34.72;;;25.80;;
63189;SDS011;49286;44.460;26.114;2023-04-21T05:29:40;40.38;;;24.95;;
63189;SDS011;49286;44.460;26.114;2023-04-21T05:32:06;43.88;;;25.30;;
63189;SDS011;49286;44.460;26.114;2023-04-21T05:34:31;35.38;;;24.85;;
63189;SDS011;49286;44.460;26.114;2023-04-21T05:36:57;29.77;;;22.25;;
63189;SDS011;49286;44.460;26.114;2023-04-21T05:39:22;34.80;;;24.77;;
63189;SDS011;49286;44.460;26.114;2023-04-21T05:41:48;31.50;;;23.10;;
63189;SDS011;49286;44.460;26.114;2023-04-21T05:44:16;41.42;;;28.25;;
63189;SDS011;49286;44.460;26.114;2023-04-21T05:46:42;32.55;;;23.83;;
63189;SDS011;49286;44.460;26.114;2023-04-21T05:49:08;35.58;;;25.88;;
63189;SDS011;49286;44.460;26.114;2023-04-21T05:51:33;32.30;;;23.83;;
63189;SDS011;49286;44.460;26.114;2023-04-21T05:53:58;35.83;;;26.25;;
63189;SDS011;49286;44.460;26.114;2023-04-21T05:56:24;32.78;;;25.55;;
63189;SDS011;49286;44.460;26.114;2023-04-21T05:58:49;30.95;;;24.63;;
63189;SDS011;49286;44.460;26.114;2023-04-21T06:01:15;34.50;;;23.95;;
63189;SDS011;49286;44.460;26.114;2023-04-21T06:03:40;36.00;;;21.73;;
63189;SDS011;49286;44.460;26.114;2023-04-21T06:06:06;31.52;;;23.65;;
63189;SDS011;49286;44.460;26.114;2023-04-21T06:08:33;29.10;;;21.27;;
63189;SDS011;49286;44.460;26.114;2023-04-21T06:10:59;31.55;;;23.58;;
63189;SDS011;49286;44.460;26.114;2023-04-21T06:13:24;28.20;;;20.20;;
63189;SDS011;49286;44.460;26.114;2023-04-21T06:15:51;31.25;;;19.67;;
63189;SDS011;49286;44.460;26.114;2023-04-21T06:18:17;33.03;;;19.77;;
63189;SDS011;49286;44.460;26.114;2023-04-21T06:20:49;22.02;;;16.50;;
63189;SDS011;49286;44.460;26.114;2023-04-21T06:23:16;21.53;;;15.50;;
63189;SDS011;49286;44.460;26.114;2023-04-21T06:25:41;22.40;;;15.30;;
63189;SDS011;49286;44.460;26.114;2023-04-21T06:28:07;23.25;;;15.55;;
63189;SDS011;49286;44.460;26.114;2023-04-21T06:30:32;23.60;;;14.45;;
63189;SDS011;49286;44.460;26.114;2023-04-21T06:32:58;21.08;;;15.10;;
63189;SDS011;49286;44.460;26.114;2023-04-21T06:35:23;17.05;;;9.82;;
63189;SDS011;49286;44.460;26.114;2023-04-21T06:37:50;15.32;;;8.38;;
63189;SDS011;49286;44.460;26.114;2023-04-21T06:40:15;11.93;;;8.48;;
63189;SDS011;49286;44.460;26.114;2023-04-21T06:42:41;14.27;;;9.60;;
63189;SDS011;49286;44.460;26.114;2023-04-21T06:45:06;11.43;;;7.47;;
63189;SDS011;49286;44.460;26.114;2023-04-21T06:47:32;15.02;;;8.55;;
63189;SDS011;49286;44.460;26.114;2023-04-21T06:49:58;12.07;;;8.40;;
63189;SDS011;49286;44.460;26.114;2023-04-21T06:52:23;13.38;;;8.68;;
63189;SDS011;49286;44.460;26.114;2023-04-21T06:54:49;19.45;;;9.30;;
63189;SDS011;49286;44.460;26.114;2023-04-21T06:57:14;16.80;;;8.63;;
63189;SDS011;49286;44.460;26.114;2023-04-21T06:59:41;23.67;;;9.57;;
63189;SDS011;49286;44.460;26.114;2023-04-21T07:02:06;14.27;;;8.02;;
63189;SDS011;49286;44.460;26.114;2023-04-21T07:04:32;10.48;;;7.45;;
63189;SDS011;49286;44.460;26.114;2023-04-21T07:06:57;14.63;;;9.00;;
63189;SDS011;49286;44.460;26.114;2023-04-21T07:09:23;11.63;;;6.57;;
63189;SDS011;49286;44.460;26.114;2023-04-21T07:11:48;14.18;;;9.98;;
63189;SDS011;49286;44.460;26.114;2023-04-21T07:14:14;16.60;;;8.07;;
63189;SDS011;49286;44.460;26.114;2023-04-21T07:16:39;41.03;;;14.90;;
63189;SDS011;49286;44.460;26.114;2023-04-21T07:19:05;20.38;;;9.93;;
63189;SDS011;49286;44.460;26.114;2023-04-21T07:21:30;15.60;;;5.20;;
63189;SDS011;49286;44.460;26.114;2023-04-21T07:23:56;10.95;;;5.25;;
63189;SDS011;49286;44.460;26.114;2023-04-21T07:26:23;16.60;;;6.45;;
63189;SDS011;49286;44.460;26.114;2023-04-21T07:28:48;14.00;;;6.95;;
63189;SDS011;49286;44.460;26.114;2023-04-21T07:31:16;12.43;;;4.40;;
63189;SDS011;49286;44.460;26.114;2023-04-21T07:33:41;14.82;;;4.70;;
63189;SDS011;49286;44.460;26.114;2023-04-21T07:36:07;8.38;;;3.55;;
63189;SDS011;49286;44.460;26.114;2023-04-21T07:38:32;11.40;;;3.53;;
63189;SDS011;49286;44.460;26.114;2023-04-21T07:40:58;14.10;;;4.45;;
63189;SDS011;49286;44.460;26.114;2023-04-21T07:43:24;18.45;;;4.35;;
63189;SDS011;49286;44.460;26.114;2023-04-21T07:45:50;7.63;;;3.72;;
63189;SDS011;49286;44.460;26.114;2023-04-21T07:48:16;5.93;;;3.42;;
63189;SDS011;49286;44.460;26.114;2023-04-21T07:50:42;7.75;;;3.88;;
63189;SDS011;49286;44.460;26.114;2023-04-21T07:53:08;12.20;;;4.85;;
63189;SDS011;49286;44.460;26.114;2023-04-21T07:55:33;10.90;;;4.57;;
63189;SDS011;49286;44.460;26.114;2023-04-21T07:58:01;14.65;;;3.90;;
63189;SDS011;49286;44.460;26.114;2023-04-21T08:00:28;9.57;;;3.80;;
63189;SDS011;49286;44.460;26.114;2023-04-21T08:02:53;10.77;;;3.92;;
63189;SDS011;49286;44.460;26.114;2023-04-21T08:05:19;14.40;;;4.93;;
63189;SDS011;49286;44.460;26.114;2023-04-21T08:07:44;12.70;;;5.25;;
63189;SDS011;49286;44.460;26.114;2023-04-21T08:10:10;23.17;;;5.60;;
63189;SDS011;49286;44.460;26.114;2023-04-21T08:12:36;14.25;;;3.97;;
63189;SDS011;49286;44.460;26.114;2023-04-21T08:15:01;9.40;;;4.13;;
63189;SDS011;49286;44.460;26.114;2023-04-21T08:17:30;16.00;;;5.53;;
63189;SDS011;49286;44.460;26.114;2023-04-21T08:19:55;17.83;;;5.05;;
63189;SDS011;49286;44.460;26.114;2023-04-21T08:22:22;17.30;;;6.03;;
63189;SDS011;49286;44.460;26.114;2023-04-21T08:24:48;12.95;;;5.78;;
63189;SDS011;49286;44.460;26.114;2023-04-21T08:27:13;12.88;;;5.40;;
63189;SDS011;49286;44.460;26.114;2023-04-21T08:29:39;14.55;;;5.28;;
63189;SDS011;49286;44.460;26.114;2023-04-21T08:32:05;11.55;;;4.40;;
63189;SDS011;49286;44.460;26.114;2023-04-21T08:34:31;9.63;;;4.25;;
63189;SDS011;49286;44.460;26.114;2023-04-21T08:36:57;15.05;;;5.32;;
63189;SDS011;49286;44.460;26.114;2023-04-21T08:39:23;18.00;;;5.57;;
63189;SDS011;49286;44.460;26.114;2023-04-21T08:41:48;14.50;;;3.60;;
63189;SDS011;49286;44.460;26.114;2023-04-21T08:44:14;10.82;;;6.55;;
63189;SDS011;49286;44.460;26.114;2023-04-21T08:46:42;11.85;;;3.55;;
63189;SDS011;49286;44.460;26.114;2023-04-21T08:49:09;9.80;;;3.92;;
63189;SDS011;49286;44.460;26.114;2023-04-21T08:51:37;7.75;;;3.28;;
63189;SDS011;49286;44.460;26.114;2023-04-21T08:54:03;15.55;;;4.93;;
63189;SDS011;49286;44.460;26.114;2023-04-21T08:56:29;8.32;;;3.33;;
63189;SDS011;49286;44.460;26.114;2023-04-21T08:58:55;9.98;;;3.92;;
63189;SDS011;49286;44.460;26.114;2023-04-21T09:01:20;15.18;;;4.32;;
63189;SDS011;49286;44.460;26.114;2023-04-21T09:03:46;10.88;;;4.90;;
63189;SDS011;49286;44.460;26.114;2023-04-21T09:06:11;12.30;;;4.57;;
63189;SDS011;49286;44.460;26.114;2023-04-21T09:08:38;14.85;;;4.50;;
63189;SDS011;49286;44.460;26.114;2023-04-21T09:11:06;14.77;;;4.43;;
63189;SDS011;49286;44.460;26.114;2023-04-21T09:13:33;17.27;;;4.93;;
63189;SDS011;49286;44.460;26.114;2023-04-21T09:16:00;11.45;;;4.28;;
63189;SDS011;49286;44.460;26.114;2023-04-21T09:18:32;13.30;;;3.93;;
63189;SDS011;49286;44.460;26.114;2023-04-21T09:21:05;9.15;;;4.28;;
63189;SDS011;49286;44.460;26.114;2023-04-21T09:23:39;14.00;;;3.60;;
63189;SDS011;49286;44.460;26.114;2023-04-21T09:26:07;11.35;;;4.60;;
63189;SDS011;49286;44.460;26.114;2023-04-21T09:28:33;11.93;;;4.45;;
63189;SDS011;49286;44.460;26.114;2023-04-21T09:30:58;16.23;;;4.20;;
63189;SDS011;49286;44.460;26.114;2023-04-21T09:33:24;7.03;;;3.30;;
63189;SDS011;49286;44.460;26.114;2023-04-21T09:35:49;8.55;;;4.20;;
63189;SDS011;49286;44.460;26.114;2023-04-21T09:38:16;14.48;;;4.50;;
63189;SDS011;49286;44.460;26.114;2023-04-21T09:40:46;10.60;;;3.80;;
63189;SDS011;49286;44.460;26.114;2023-04-21T09:43:20;15.68;;;4.13;;
63189;SDS011;49286;44.460;26.114;2023-04-21T09:45:46;14.70;;;4.28;;
63189;SDS011;49286;44.460;26.114;2023-04-21T09:48:13;10.27;;;4.40;;
63189;SDS011;49286;44.460;26.114;2023-04-21T09:50:42;36.70;;;8.40;;
63189;SDS011;49286;44.460;26.114;2023-04-21T09:53:07;12.75;;;4.20;;
63189;SDS011;49286;44.460;26.114;2023-04-21T09:55:40;135.20;;;22.55;;
63189;SDS011;49286;44.460;26.114;2023-04-21T09:58:06;293.90;;;69.60;;
63189;SDS011;49286;44.460;26.114;2023-04-21T10:00:36;16.50;;;3.35;;
63189;SDS011;49286;44.460;26.114;2023-04-21T10:03:04;16.88;;;4.28;;
63189;SDS011;49286;44.460;26.114;2023-04-21T10:05:36;23.15;;;4.90;;
63189;SDS011;49286;44.460;26.114;2023-04-21T10:08:02;67.68;;;14.82;;
63189;SDS011;49286;44.460;26.114;2023-04-21T10:10:31;27.40;;;8.02;;
63189;SDS011;49286;44.460;26.114;2023-04-21T10:12:59;27.83;;;5.82;;
63189;SDS011;49286;44.460;26.114;2023-04-21T10:18:15;11.93;;;3.75;;
63189;SDS011;49286;44.460;26.114;2023-04-21T10:20:49;13.45;;;4.15;;
63189;SDS011;49286;44.460;26.114;2023-04-21T10:23:28;78.22;;;17.13;;
63189;SDS011;49286;44.460;26.114;2023-04-21T10:26:11;90.38;;;20.42;;
63189;SDS011;49286;44.460;26.114;2023-04-21T10:31:15;19.08;;;4.28;;
63189;SDS011;49286;44.460;26.114;2023-04-21T10:39:09;9.73;;;3.63;;
63189;SDS011;49286;44.460;26.114;2023-04-21T10:41:37;19.98;;;5.50;;
63189;SDS011;49286;44.460;26.114;2023-04-21T10:46:38;53.17;;;17.70;;
63189;SDS011;49286;44.460;26.114;2023-04-21T10:49:09;99.07;;;24.30;;
63189;SDS011;49286;44.460;26.114;2023-04-21T10:54:23;11.73;;;3.92;;
63189;SDS011;49286;44.460;26.114;2023-04-21T10:56:52;19.38;;;3.33;;
63189;SDS011;49286;44.460;26.114;2023-04-21T10:59:19;16.33;;;4.20;;
63189;SDS011;49286;44.460;26.114;2023-04-21T11:01:45;14.38;;;4.63;;
63189;SDS011;49286;44.460;26.114;2023-04-21T11:04:17;23.67;;;4.25;;
63189;SDS011;49286;44.460;26.114;2023-04-21T11:09:31;23.25;;;4.03;;
63189;SDS011;49286;44.460;26.114;2023-04-21T11:11:58;15.82;;;3.85;;
63189;SDS011;49286;44.460;26.114;2023-04-21T11:14:26;9.30;;;3.63;;
63189;SDS011;49286;44.460;26.114;2023-04-21T11:16:52;14.50;;;4.50;;
63189;SDS011;49286;44.460;26.114;2023-04-21T11:19:21;26.52;;;5.03;;
63189;SDS011;49286;44.460;26.114;2023-04-21T11:21:49;43.53;;;13.82;;
63189;SDS011;49286;44.460;26.114;2023-04-21T11:24:15;17.80;;;7.30;;
63189;SDS011;49286;44.460;26.114;2023-04-21T11:26:40;40.85;;;11.70;;
63189;SDS011;49286;44.460;26.114;2023-04-21T11:29:07;21.60;;;7.30;;
63189;SDS011;49286;44.460;26.114;2023-04-21T11:31:35;10.75;;;3.35;;
63189;SDS011;49286;44.460;26.114;2023-04-21T11:34:02;15.57;;;4.22;;
63189;SDS011;49286;44.460;26.114;2023-04-21T11:36:31;10.32;;;3.15;;
63189;SDS011;49286;44.460;26.114;2023-04-21T11:38:57;12.68;;;4.85;;
63189;SDS011;49286;44.460;26.114;2023-04-21T11:41:23;17.05;;;5.32;;
63189;SDS011;49286;44.460;26.114;2023-04-21T11:43:50;17.80;;;5.47;;
63189;SDS011;49286;44.460;26.114;2023-04-21T11:46:24;12.90;;;4.55;;
63189;SDS011;49286;44.460;26.114;2023-04-21T11:49:01;14.50;;;5.13;;
63189;SDS011;49286;44.460;26.114;2023-04-21T11:51:35;137.30;;;27.30;;
63189;SDS011;49286;44.460;26.114;2023-04-21T11:54:04;12.32;;;5.35;;
63189;SDS011;49286;44.460;26.114;2023-04-21T11:56:35;27.33;;;6.95;;
63189;SDS011;49286;44.460;26.114;2023-04-21T11:59:05;89.80;;;23.48;;
63189;SDS011;49286;44.460;26.114;2023-04-21T12:01:41;27.95;;;8.32;;
63189;SDS011;49286;44.460;26.114;2023-04-21T12:04:14;57.20;;;14.45;;
63189;SDS011;49286;44.460;26.114;2023-04-21T12:06:41;18.98;;;6.68;;
63189;SDS011;49286;44.460;26.114;2023-04-21T12:09:07;16.27;;;5.53;;
63189;SDS011;49286;44.460;26.114;2023-04-21T12:11:33;19.08;;;3.85;;
63189;SDS011;49286;44.460;26.114;2023-04-21T12:13:59;31.20;;;5.80;;
63189;SDS011;49286;44.460;26.114;2023-04-21T12:16:26;260.92;;;65.07;;
63189;SDS011;49286;44.460;26.114;2023-04-21T12:18:55;89.60;;;19.42;;
63189;SDS011;49286;44.460;26.114;2023-04-21T12:21:25;46.47;;;11.00;;
63189;SDS011;49286;44.460;26.114;2023-04-21T12:23:54;16.45;;;6.25;;
63189;SDS011;49286;44.460;26.114;2023-04-21T12:26:20;19.50;;;5.05;;
63189;SDS011;49286;44.460;26.114;2023-04-21T12:28:47;51.83;;;16.08;;
63189;SDS011;49286;44.460;26.114;2023-04-21T12:31:15;23.20;;;4.65;;
63189;SDS011;49286;44.460;26.114;2023-04-21T12:33:40;23.33;;;8.68;;
63189;SDS011;49286;44.460;26.114;2023-04-21T12:36:06;35.53;;;9.27;;
63189;SDS011;49286;44.460;26.114;2023-04-21T12:38:32;20.75;;;3.60;;
63189;SDS011;49286;44.460;26.114;2023-04-21T12:40:58;21.75;;;4.75;;
63189;SDS011;49286;44.460;26.114;2023-04-21T12:43:23;11.32;;;4.05;;
63189;SDS011;49286;44.460;26.114;2023-04-21T12:45:49;11.18;;;4.72;;
63189;SDS011;49286;44.460;26.114;2023-04-21T12:48:16;16.65;;;4.22;;
63189;SDS011;49286;44.460;26.114;2023-04-21T12:50:43;14.85;;;4.13;;
63189;SDS011;49286;44.460;26.114;2023-04-21T12:53:10;90.32;;;18.42;;
63189;SDS011;49286;44.460;26.114;2023-04-21T12:55:36;26.35;;;10.10;;
63189;SDS011;49286;44.460;26.114;2023-04-21T12:58:02;15.85;;;4.07;;
63189;SDS011;49286;44.460;26.114;2023-04-21T13:00:27;44.88;;;10.57;;
63189;SDS011;49286;44.460;26.114;2023-04-21T13:02:53;145.25;;;35.58;;
63189;SDS011;49286;44.460;26.114;2023-04-21T13:05:18;76.35;;;21.23;;
63189;SDS011;49286;44.460;26.114;2023-04-21T13:07:44;41.97;;;7.25;;
63189;SDS011;49286;44.460;26.114;2023-04-21T13:10:10;15.80;;;4.72;;
63189;SDS011;49286;44.460;26.114;2023-04-21T13:12:35;16.17;;;3.53;;
63189;SDS011;49286;44.460;26.114;2023-04-21T13:15:01;15.93;;;5.05;;
63189;SDS011;49286;44.460;26.114;2023-04-21T13:17:27;16.55;;;6.75;;
63189;SDS011;49286;44.460;26.114;2023-04-21T13:19:52;14.23;;;4.78;;
63189;SDS011;49286;44.460;26.114;2023-04-21T13:22:18;30.60;;;5.57;;
63189;SDS011;49286;44.460;26.114;2023-04-21T13:24:44;15.65;;;3.85;;
63189;SDS011;49286;44.460;26.114;2023-04-21T13:27:09;16.67;;;5.00;;
63189;SDS011;49286;44.460;26.114;2023-04-21T13:29:35;9.32;;;3.28;;
63189;SDS011;49286;44.460;26.114;2023-04-21T13:32:01;11.45;;;4.50;;
63189;SDS011;49286;44.460;26.114;2023-04-21T13:34:28;14.65;;;5.57;;
63189;SDS011;49286;44.460;26.114;2023-04-21T13:36:54;18.88;;;7.00;;
63189;SDS011;49286;44.460;26.114;2023-04-21T13:39:20;27.02;;;9.40;;
63189;SDS011;49286;44.460;26.114;2023-04-21T13:41:47;23.35;;;6.38;;
63189;SDS011;49286;44.460;26.114;2023-04-21T13:44:12;17.33;;;6.82;;
63189;SDS011;49286;44.460;26.114;2023-04-21T13:46:38;111.13;;;21.80;;
63189;SDS011;49286;44.460;26.114;2023-04-21T13:49:04;78.20;;;18.02;;
63189;SDS011;49286;44.460;26.114;2023-04-21T13:51:30;17.33;;;7.35;;
63189;SDS011;49286;44.460;26.114;2023-04-21T13:53:56;47.90;;;13.23;;
63189;SDS011;49286;44.460;26.114;2023-04-21T13:56:21;13.70;;;3.90;;
63189;SDS011;49286;44.460;26.114;2023-04-21T13:58:47;16.95;;;4.03;;
63189;SDS011;49286;44.460;26.114;2023-04-21T14:01:13;16.95;;;4.25;;
63189;SDS011;49286;44.460;26.114;2023-04-21T14:03:39;9.80;;;4.00;;
63189;SDS011;49286;44.460;26.114;2023-04-21T14:06:05;38.88;;;5.10;;
63189;SDS011;49286;44.460;26.114;2023-04-21T14:08:31;15.48;;;4.53;;
63189;SDS011;49286;44.460;26.114;2023-04-21T14:10:57;11.43;;;3.67;;
63189;SDS011;49286;44.460;26.114;2023-04-21T14:13:23;18.50;;;4.88;;
63189;SDS011;49286;44.460;26.114;2023-04-21T14:15:52;11.15;;;3.85;;
63189;SDS011;49286;44.460;26.114;2023-04-21T14:18:18;19.10;;;5.45;;
63189;SDS011;49286;44.460;26.114;2023-04-21T14:20:44;47.97;;;8.13;;
63189;SDS011;49286;44.460;26.114;2023-04-21T14:23:10;13.68;;;7.00;;
63189;SDS011;49286;44.460;26.114;2023-04-21T14:25:35;7.85;;;3.90;;
63189;SDS011;49286;44.460;26.114;2023-04-21T14:28:01;22.73;;;8.60;;
63189;SDS011;49286;44.460;26.114;2023-04-21T14:30:31;15.23;;;6.40;;